Time;durP1;ratioP1;P1;durP2;ratioP2;P2;SDS_P1;SDS_P2;PMS_P1;PMS_P2;Temp;Humidity;BMP_temperature;BMP_pressure;BME280_temperature;BME280_humidity;BME280_pressure;Samples;Min_cycle;Max_cycle;Signal;HPM_P1;HPM_P2
2023/03/07 00:02:10;;;;;;;40.38;19.10;;;;;;;;;;5019900;28;20498;-77
2023/03/07 00:04:36;;;;;;;46.42;22.50;;;;;;;;;;5024056;28;20041;-77
2023/03/07 00:07:02;;;;;;;48.83;21.25;;;;;;;;;;5015735;28;20060;-77
2023/03/07 00:09:28;;;;;;;44.70;21.10;;;;;;;;;;5025154;28;20033;-76
2023/03/07 00:11:54;;;;;;;41.67;19.52;;;;;;;;;;5021440;28;20116;-77
2023/03/07 00:14:20;;;;;;;37.65;18.38;;;;;;;;;;5023327;28;20107;-77
2023/03/07 00:16:49;;;;;;;40.60;19.02;;;;;;;;;;5026969;28;20499;-77
2023/03/07 00:19:17;;;;;;;43.72;21.33;;;;;;;;;;5029437;28;20034;-77
2023/03/07 00:21:43;;;;;;;39.42;18.77;;;;;;;;;;5020479;28;20032;-77
2023/03/07 00:24:09;;;;;;;40.25;19.10;;;;;;;;;;5022427;28;20040;-77
2023/03/07 00:26:38;;;;;;;47.70;23.15;;;;;;;;;;5028952;28;20395;-77
2023/03/07 00:29:04;;;;;;;63.60;29.45;;;;;;;;;;5029111;28;20029;-77
2023/03/07 00:31:30;;;;;;;97.55;45.40;;;;;;;;;;5022556;28;20037;-77
2023/03/07 00:33:56;;;;;;;93.97;42.47;;;;;;;;;;5029191;28;20509;-77
2023/03/07 00:36:23;;;;;;;52.40;24.77;;;;;;;;;;5023881;28;20042;-77
2023/03/07 00:38:49;;;;;;;42.45;20.63;;;;;;;;;;5028360;28;20065;-77
2023/03/07 00:41:16;;;;;;;38.20;19.75;;;;;;;;;;5022413;28;20034;-77
2023/03/07 00:43:44;;;;;;;39.22;17.90;;;;;;;;;;5010260;28;20034;-77
2023/03/07 00:46:10;;;;;;;43.97;20.35;;;;;;;;;;5019043;28;20128;-77
2023/03/07 00:48:37;;;;;;;36.72;17.52;;;;;;;;;;5012122;28;20025;-77
2023/03/07 00:51:04;;;;;;;37.33;16.75;;;;;;;;;;5014056;28;20042;-77
2023/03/07 00:53:30;;;;;;;32.65;15.02;;;;;;;;;;5024752;28;20059;-76
2023/03/07 00:56:00;;;;;;;35.47;17.13;;;;;;;;;;5018119;28;20072;-76
2023/03/07 00:58:27;;;;;;;36.38;16.38;;;;;;;;;;5026515;28;20037;-77
2023/03/07 01:00:53;;;;;;;33.50;17.98;;;;;;;;;;5025098;28;20041;-77
2023/03/07 01:03:19;;;;;;;38.00;18.85;;;;;;;;;;5029320;28;20040;-77
2023/03/07 01:05:45;;;;;;;46.03;22.55;;;;;;;;;;5031123;28;20072;-77
2023/03/07 01:08:12;;;;;;;55.72;27.70;;;;;;;;;;5025458;28;20061;-77
2023/03/07 01:10:38;;;;;;;52.10;27.98;;;;;;;;;;5030144;28;20070;-77
2023/03/07 01:13:04;;;;;;;52.25;29.75;;;;;;;;;;5040046;28;20052;-77
2023/03/07 01:15:30;;;;;;;49.40;25.65;;;;;;;;;;5031967;28;20120;-77
2023/03/07 01:17:56;;;;;;;45.45;22.42;;;;;;;;;;5025551;28;20083;-77
2023/03/07 01:20:22;;;;;;;41.33;21.23;;;;;;;;;;5022872;28;20044;-77
2023/03/07 01:22:48;;;;;;;39.38;20.25;;;;;;;;;;5031952;28;20433;-77
2023/03/07 01:25:14;;;;;;;35.30;19.42;;;;;;;;;;5032915;28;20029;-77
2023/03/07 01:27:40;;;;;;;39.47;20.45;;;;;;;;;;5034065;28;20033;-77
2023/03/07 01:30:08;;;;;;;35.38;18.67;;;;;;;;;;5034328;28;20033;-77
2023/03/07 01:32:34;;;;;;;36.92;17.92;;;;;;;;;;5028813;28;20043;-77
2023/03/07 01:35:00;;;;;;;36.85;17.48;;;;;;;;;;5022487;28;20143;-77
2023/03/07 01:37:26;;;;;;;37.05;16.52;;;;;;;;;;5031644;28;20072;-77
2023/03/07 01:39:53;;;;;;;35.40;17.98;;;;;;;;;;5031440;28;20565;-77
2023/03/07 01:42:19;;;;;;;35.65;18.55;;;;;;;;;;5024238;28;20499;-77
2023/03/07 01:44:59;;;;;;;41.42;20.13;;;;;;;;;;5024376;28;20025;-77
2023/03/07 01:47:25;;;;;;;39.80;17.33;;;;;;;;;;5027177;28;20030;-77
2023/03/07 01:49:51;;;;;;;41.63;19.40;;;;;;;;;;5024953;28;20030;-77
2023/03/07 01:52:20;;;;;;;33.88;16.83;;;;;;;;;;5028209;28;20129;-77
2023/03/07 01:54:49;;;;;;;35.67;16.48;;;;;;;;;;5026151;28;20048;-77
2023/03/07 01:57:19;;;;;;;32.80;16.38;;;;;;;;;;5032110;28;20030;-77
2023/03/07 01:59:46;;;;;;;33.38;16.15;;;;;;;;;;5026096;28;20054;-77
2023/03/07 02:02:18;;;;;;;30.98;15.35;;;;;;;;;;5017406;28;20040;-77
2023/03/07 02:04:48;;;;;;;32.47;15.33;;;;;;;;;;5021141;28;20820;-77
2023/03/07 02:07:15;;;;;;;30.23;14.40;;;;;;;;;;5027531;28;20049;-77
2023/03/07 02:09:42;;;;;;;30.60;15.05;;;;;;;;;;5021329;28;20028;-77
2023/03/07 02:12:09;;;;;;;32.03;14.60;;;;;;;;;;5031283;28;20128;-77
2023/03/07 02:14:35;;;;;;;27.42;14.02;;;;;;;;;;5031312;28;20576;-77
2023/03/07 02:17:02;;;;;;;29.75;15.00;;;;;;;;;;5026132;28;20038;-77
2023/03/07 02:19:34;;;;;;;33.13;17.23;;;;;;;;;;5017895;28;20033;-77
2023/03/07 02:22:17;;;;;;;31.33;16.63;;;;;;;;;;5011686;28;20846;-77
2023/03/07 02:24:52;;;;;;;36.65;18.00;;;;;;;;;;5019108;28;20060;-77
2023/03/07 02:27:18;;;;;;;34.83;16.67;;;;;;;;;;5023205;28;20030;-78
2023/03/07 02:29:44;;;;;;;33.60;15.27;;;;;;;;;;5029578;28;20123;-77
2023/03/07 02:32:10;;;;;;;30.52;14.82;;;;;;;;;;5031176;28;20455;-77
2023/03/07 02:34:36;;;;;;;31.23;15.27;;;;;;;;;;5033886;28;20021;-77
2023/03/07 02:37:10;;;;;;;27.25;14.35;;;;;;;;;;5019070;28;20486;-77
2023/03/07 02:39:38;;;;;;;35.42;17.25;;;;;;;;;;5031133;28;20033;-77
2023/03/07 02:42:07;;;;;;;28.83;15.13;;;;;;;;;;5027497;28;20040;-77
2023/03/07 02:44:33;;;;;;;31.88;15.15;;;;;;;;;;5033178;28;20025;-77
2023/03/07 02:46:59;;;;;;;34.20;17.27;;;;;;;;;;5021334;28;20072;-77
2023/03/07 02:49:25;;;;;;;28.52;14.10;;;;;;;;;;5028845;28;20029;-77
2023/03/07 02:51:56;;;;;;;27.20;14.23;;;;;;;;;;5030955;28;20395;-77
2023/03/07 02:54:22;;;;;;;28.00;13.77;;;;;;;;;;5022305;28;20033;-77
2023/03/07 02:56:48;;;;;;;30.30;13.75;;;;;;;;;;5044713;28;20045;-78
2023/03/07 02:59:14;;;;;;;24.13;12.85;;;;;;;;;;5027132;28;20033;-78
2023/03/07 03:01:40;;;;;;;26.38;12.57;;;;;;;;;;5030111;28;20900;-77
2023/03/07 03:04:06;;;;;;;23.38;11.90;;;;;;;;;;5030417;28;20051;-77
2023/03/07 03:06:32;;;;;;;23.40;11.32;;;;;;;;;;5033534;28;20083;-77
2023/03/07 03:08:58;;;;;;;23.00;11.63;;;;;;;;;;5013098;28;20719;-77
2023/03/07 03:11:24;;;;;;;23.98;11.52;;;;;;;;;;5028336;28;20040;-77
2023/03/07 03:13:50;;;;;;;30.40;13.35;;;;;;;;;;5034173;28;20470;-78
2023/03/07 03:16:16;;;;;;;29.40;15.50;;;;;;;;;;5032568;28;20049;-77
2023/03/07 03:18:42;;;;;;;25.27;13.65;;;;;;;;;;5029649;28;20990;-77
2023/03/07 03:21:09;;;;;;;27.02;13.05;;;;;;;;;;5029939;28;20112;-77
2023/03/07 03:23:35;;;;;;;30.20;14.15;;;;;;;;;;5029641;28;20059;-78
2023/03/07 03:26:04;;;;;;;26.85;12.00;;;;;;;;;;5023851;28;20152;-77
2023/03/07 03:28:30;;;;;;;26.85;13.45;;;;;;;;;;5015989;28;20667;-77
2023/03/07 03:30:59;;;;;;;25.00;11.60;;;;;;;;;;5018108;28;20128;-77
2023/03/07 03:33:28;;;;;;;22.52;11.38;;;;;;;;;;5023956;28;20033;-77
2023/03/07 03:35:53;;;;;;;27.40;12.35;;;;;;;;;;5030060;28;20037;-77
2023/03/07 03:38:19;;;;;;;28.65;12.55;;;;;;;;;;5030102;28;20062;-77
2023/03/07 03:40:45;;;;;;;27.00;12.45;;;;;;;;;;5031689;28;20037;-77
2023/03/07 03:43:11;;;;;;;26.83;12.10;;;;;;;;;;5029545;28;20416;-78
2023/03/07 03:45:39;;;;;;;28.65;14.27;;;;;;;;;;5029307;28;20029;-77
2023/03/07 03:48:05;;;;;;;28.48;12.70;;;;;;;;;;5020137;28;20033;-77
2023/03/07 03:50:31;;;;;;;26.98;12.50;;;;;;;;;;5031132;28;20044;-77
2023/03/07 03:52:57;;;;;;;26.13;12.32;;;;;;;;;;5022549;28;20026;-77
2023/03/07 03:55:23;;;;;;;29.90;14.02;;;;;;;;;;5021737;28;20060;-77
2023/03/07 03:57:49;;;;;;;35.47;14.65;;;;;;;;;;5024824;28;20041;-77
2023/03/07 04:00:18;;;;;;;27.20;12.80;;;;;;;;;;5032583;28;20044;-77
2023/03/07 04:02:44;;;;;;;28.67;14.65;;;;;;;;;;5038013;28;20069;-77
2023/03/07 04:05:10;;;;;;;26.08;12.70;;;;;;;;;;5025086;28;20065;-77
2023/03/07 04:07:36;;;;;;;30.85;13.48;;;;;;;;;;5029411;28;20502;-77
2023/03/07 04:10:03;;;;;;;29.92;13.07;;;;;;;;;;5026312;28;20026;-77
2023/03/07 04:12:29;;;;;;;29.73;14.00;;;;;;;;;;5028581;28;20029;-77
2023/03/07 04:14:55;;;;;;;31.30;13.18;;;;;;;;;;5027905;28;20068;-77
2023/03/07 04:17:22;;;;;;;25.45;12.57;;;;;;;;;;5028850;28;20025;-77
2023/03/07 04:19:48;;;;;;;25.25;11.52;;;;;;;;;;5027155;28;20566;-77
2023/03/07 04:22:14;;;;;;;27.48;13.52;;;;;;;;;;5028885;28;20025;-77
2023/03/07 04:24:40;;;;;;;24.27;11.52;;;;;;;;;;5027851;28;20059;-78
2023/03/07 04:27:06;;;;;;;24.90;12.80;;;;;;;;;;5028840;28;20479;-77
2023/03/07 04:29:32;;;;;;;29.70;12.93;;;;;;;;;;5028028;28;20036;-77
2023/03/07 04:31:58;;;;;;;36.80;13.25;;;;;;;;;;5026667;28;20037;-77
2023/03/07 04:34:24;;;;;;;30.58;14.30;;;;;;;;;;5020974;28;20026;-77
2023/03/07 04:36:50;;;;;;;24.17;12.20;;;;;;;;;;5029101;28;20379;-77
2023/03/07 04:39:16;;;;;;;24.02;12.55;;;;;;;;;;5029855;28;20479;-77
2023/03/07 04:41:42;;;;;;;24.88;13.18;;;;;;;;;;5027633;28;20875;-77
2023/03/07 04:44:08;;;;;;;28.67;13.10;;;;;;;;;;5027536;28;20068;-77
2023/03/07 04:46:34;;;;;;;26.38;12.50;;;;;;;;;;5018689;28;20505;-77
2023/03/07 04:49:00;;;;;;;31.50;12.85;;;;;;;;;;5018397;28;20026;-77
2023/03/07 04:51:26;;;;;;;26.05;13.30;;;;;;;;;;5022204;28;20037;-77
2023/03/07 04:53:52;;;;;;;29.35;14.52;;;;;;;;;;5031066;28;20034;-78
2023/03/07 04:56:18;;;;;;;35.08;15.32;;;;;;;;;;5028257;28;20088;-77
2023/03/07 04:58:44;;;;;;;30.52;14.85;;;;;;;;;;5028363;28;20057;-77
2023/03/07 05:01:11;;;;;;;26.98;13.00;;;;;;;;;;5028945;28;20041;-77
2023/03/07 05:03:36;;;;;;;27.58;13.48;;;;;;;;;;5026607;28;20025;-77
2023/03/07 05:06:04;;;;;;;30.63;15.73;;;;;;;;;;5021733;28;20073;-77
2023/03/07 05:08:30;;;;;;;27.33;13.32;;;;;;;;;;5019924;28;20050;-77
2023/03/07 05:10:56;;;;;;;27.25;12.85;;;;;;;;;;5020595;28;20041;-77
2023/03/07 05:13:22;;;;;;;27.02;13.68;;;;;;;;;;5024780;28;20040;-77
2023/03/07 05:15:52;;;;;;;24.60;13.18;;;;;;;;;;5017933;28;20113;-78
2023/03/07 05:18:17;;;;;;;29.70;14.27;;;;;;;;;;5028121;28;20049;-77
2023/03/07 05:20:44;;;;;;;23.17;12.20;;;;;;;;;;5029414;28;20127;-77
2023/03/07 05:23:10;;;;;;;30.05;14.45;;;;;;;;;;5028248;28;20538;-77
2023/03/07 05:25:36;;;;;;;26.95;12.93;;;;;;;;;;5028600;28;20102;-77
2023/03/07 05:28:02;;;;;;;25.10;13.55;;;;;;;;;;5033580;28;20108;-77
2023/03/07 05:30:28;;;;;;;30.95;14.20;;;;;;;;;;5028851;28;20071;-77
2023/03/07 05:32:54;;;;;;;33.33;14.35;;;;;;;;;;5034012;28;20136;-77
2023/03/07 05:35:23;;;;;;;32.25;15.10;;;;;;;;;;5028777;28;20041;-77
2023/03/07 05:37:49;;;;;;;32.70;14.02;;;;;;;;;;5022287;28;20479;-78
2023/03/07 05:40:15;;;;;;;27.83;13.77;;;;;;;;;;5031314;28;20037;-77
2023/03/07 05:42:41;;;;;;;26.63;13.20;;;;;;;;;;5024418;28;20025;-77
2023/03/07 05:45:07;;;;;;;33.13;16.58;;;;;;;;;;5027630;28;20767;-77
2023/03/07 05:47:33;;;;;;;30.70;14.48;;;;;;;;;;5026549;28;20029;-78
2023/03/07 05:50:00;;;;;;;33.83;16.30;;;;;;;;;;5020175;28;20061;-78
2023/03/07 05:52:26;;;;;;;35.60;16.50;;;;;;;;;;5031856;28;20402;-77
2023/03/07 05:54:52;;;;;;;32.25;16.17;;;;;;;;;;5031641;28;20895;-77
2023/03/07 05:57:18;;;;;;;35.83;17.15;;;;;;;;;;5032286;28;20549;-77
2023/03/07 05:59:44;;;;;;;36.70;15.23;;;;;;;;;;5031084;28;20037;-78
2023/03/07 06:02:10;;;;;;;29.48;15.57;;;;;;;;;;5029337;28;20116;-77
2023/03/07 06:04:36;;;;;;;32.42;16.30;;;;;;;;;;5030581;28;20050;-77
2023/03/07 06:07:02;;;;;;;34.53;17.83;;;;;;;;;;5039473;28;20076;-77
2023/03/07 06:09:28;;;;;;;36.13;17.48;;;;;;;;;;5020368;28;20117;-77
2023/03/07 06:11:54;;;;;;;34.88;16.35;;;;;;;;;;5022680;28;20037;-77
2023/03/07 06:14:20;;;;;;;38.30;17.08;;;;;;;;;;5026509;28;20394;-77
2023/03/07 06:16:46;;;;;;;38.50;19.33;;;;;;;;;;5015906;28;20021;-77
2023/03/07 06:19:12;;;;;;;74.75;31.08;;;;;;;;;;5029678;28;20037;-77
2023/03/07 06:21:38;;;;;;;76.70;33.22;;;;;;;;;;5025989;28;20152;-77
2023/03/07 06:24:06;;;;;;;70.68;31.50;;;;;;;;;;5033258;28;20104;-77
2023/03/07 06:26:32;;;;;;;59.45;25.52;;;;;;;;;;5031478;28;20979;-77
2023/03/07 06:28:58;;;;;;;45.67;22.63;;;;;;;;;;5030245;28;20065;-77
2023/03/07 06:31:24;;;;;;;49.03;21.33;;;;;;;;;;5023230;28;20052;-77
2023/03/07 06:33:50;;;;;;;45.80;19.98;;;;;;;;;;5035807;28;20378;-77
2023/03/07 06:36:17;;;;;;;45.75;19.80;;;;;;;;;;5031750;28;20033;-76
2023/03/07 06:38:43;;;;;;;45.92;20.40;;;;;;;;;;5030038;28;20033;-76
2023/03/07 06:41:22;;;;;;;40.22;20.67;;;;;;;;;;5028157;28;20076;-76
2023/03/07 06:43:52;;;;;;;61.53;26.58;;;;;;;;;;5029523;28;20033;-76
2023/03/07 06:46:19;;;;;;;76.43;28.63;;;;;;;;;;5027408;28;20879;-76
2023/03/07 06:48:45;;;;;;;71.13;24.13;;;;;;;;;;5032921;28;20021;-76
2023/03/07 06:51:11;;;;;;;59.85;25.70;;;;;;;;;;5027673;28;20167;-76
2023/03/07 06:53:37;;;;;;;69.65;27.35;;;;;;;;;;5033098;28;20129;-76
2023/03/07 06:56:04;;;;;;;63.20;23.80;;;;;;;;;;5027802;28;20029;-77
2023/03/07 06:58:30;;;;;;;61.70;23.55;;;;;;;;;;5024488;28;20067;-76
2023/03/07 07:00:55;;;;;;;54.45;21.60;;;;;;;;;;5024358;28;21569;-76
2023/03/07 07:03:22;;;;;;;46.10;21.05;;;;;;;;;;5027550;28;20030;-76
2023/03/07 07:05:47;;;;;;;50.25;20.58;;;;;;;;;;5031458;28;20144;-77
2023/03/07 07:08:13;;;;;;;45.03;20.15;;;;;;;;;;5030292;28;20527;-77
2023/03/07 07:10:39;;;;;;;48.17;19.10;;;;;;;;;;5032559;28;20029;-75
2023/03/07 07:13:05;;;;;;;40.75;19.13;;;;;;;;;;5022592;28;20060;-76
2023/03/07 07:15:31;;;;;;;49.58;21.50;;;;;;;;;;5028917;28;20041;-76
2023/03/07 07:17:57;;;;;;;55.38;21.45;;;;;;;;;;5032098;28;20041;-76
2023/03/07 07:20:23;;;;;;;49.75;19.65;;;;;;;;;;5028499;28;20513;-76
2023/03/07 07:22:49;;;;;;;46.47;19.83;;;;;;;;;;5025644;28;20119;-76
2023/03/07 07:25:15;;;;;;;45.97;20.13;;;;;;;;;;5030162;28;20077;-76
2023/03/07 07:27:41;;;;;;;43.47;18.38;;;;;;;;;;5035344;28;20386;-76
2023/03/07 07:30:08;;;;;;;36.22;17.20;;;;;;;;;;5030176;28;20108;-76
2023/03/07 07:32:34;;;;;;;36.70;15.57;;;;;;;;;;5028537;28;20036;-76
2023/03/07 07:35:00;;;;;;;34.65;16.90;;;;;;;;;;5029119;28;20033;-76
2023/03/07 07:37:26;;;;;;;35.53;16.00;;;;;;;;;;5028729;28;20028;-77
2023/03/07 07:39:52;;;;;;;37.78;16.85;;;;;;;;;;5032675;28;20025;-76
2023/03/07 07:42:18;;;;;;;33.28;16.00;;;;;;;;;;5027474;28;20120;-76
2023/03/07 07:44:45;;;;;;;39.35;18.65;;;;;;;;;;5035210;28;20366;-76
2023/03/07 07:47:12;;;;;;;43.22;19.02;;;;;;;;;;5018897;28;20091;-77
2023/03/07 07:49:38;;;;;;;60.10;20.35;;;;;;;;;;5033632;28;20033;-76
2023/03/07 07:52:04;;;;;;;48.15;19.58;;;;;;;;;;5033327;28;20481;-76
2023/03/07 07:54:30;;;;;;;42.67;18.88;;;;;;;;;;5030032;28;20037;-76
2023/03/07 07:56:57;;;;;;;43.60;21.38;;;;;;;;;;5029609;28;20069;-76
2023/03/07 07:59:23;;;;;;;45.42;21.52;;;;;;;;;;5020856;28;20573;-76
2023/03/07 08:01:49;;;;;;;54.40;24.02;;;;;;;;;;5027926;28;20080;-76
2023/03/07 08:04:15;;;;;;;45.28;22.23;;;;;;;;;;5033851;28;20915;-76
2023/03/07 08:06:43;;;;;;;38.75;20.08;;;;;;;;;;5035978;28;20034;-77
2023/03/07 08:09:09;;;;;;;39.40;19.35;;;;;;;;;;5030584;28;20080;-76
2023/03/07 08:11:35;;;;;;;44.97;20.00;;;;;;;;;;5022397;28;20033;-77
2023/03/07 08:14:01;;;;;;;37.78;18.40;;;;;;;;;;5023220;28;20036;-76
2023/03/07 08:16:28;;;;;;;39.35;18.63;;;;;;;;;;5022262;28;20040;-76
2023/03/07 08:18:55;;;;;;;36.70;18.52;;;;;;;;;;5032122;28;20033;-76
2023/03/07 08:21:22;;;;;;;42.53;20.73;;;;;;;;;;5024646;28;20037;-76
2023/03/07 08:23:48;;;;;;;33.85;17.17;;;;;;;;;;5024263;28;20036;-76
2023/03/07 08:26:14;;;;;;;29.40;13.25;;;;;;;;;;5022984;28;20134;-76
2023/03/07 08:28:41;;;;;;;26.35;12.52;;;;;;;;;;5029437;28;20057;-76
2023/03/07 08:31:15;;;;;;;36.08;13.38;;;;;;;;;;5024896;28;20043;-76
2023/03/07 08:33:40;;;;;;;26.02;13.32;;;;;;;;;;5029158;28;20557;-77
2023/03/07 08:36:07;;;;;;;31.60;14.48;;;;;;;;;;5022188;28;20112;-77
2023/03/07 08:38:33;;;;;;;26.00;14.05;;;;;;;;;;5024219;28;20587;-76
2023/03/07 08:41:00;;;;;;;26.20;13.82;;;;;;;;;;5028216;28;20091;-76
2023/03/07 08:43:27;;;;;;;30.55;14.40;;;;;;;;;;5030046;28;20030;-76
2023/03/07 08:45:54;;;;;;;30.83;14.27;;;;;;;;;;5034363;28;20037;-76
2023/03/07 08:48:20;;;;;;;28.05;13.07;;;;;;;;;;5015610;28;20026;-76
2023/03/07 08:50:46;;;;;;;22.13;11.93;;;;;;;;;;5028129;28;20034;-77
2023/03/07 08:53:15;;;;;;;23.15;10.82;;;;;;;;;;5028848;28;20041;-76
2023/03/07 08:55:42;;;;;;;25.17;13.60;;;;;;;;;;5027408;28;20111;-76
2023/03/07 08:58:08;;;;;;;23.40;12.02;;;;;;;;;;5026819;28;20538;-76
2023/03/07 09:00:34;;;;;;;24.48;13.15;;;;;;;;;;5022347;28;20151;-76
2023/03/07 09:03:00;;;;;;;26.08;12.77;;;;;;;;;;5022359;28;20113;-77
2023/03/07 09:05:27;;;;;;;23.10;11.93;;;;;;;;;;5036098;28;20136;-76
2023/03/07 09:07:53;;;;;;;24.77;13.52;;;;;;;;;;5029567;28;20037;-76
2023/03/07 09:10:20;;;;;;;26.20;12.73;;;;;;;;;;5038605;28;20478;-76
2023/03/07 09:12:47;;;;;;;20.95;11.25;;;;;;;;;;5036799;28;20038;-76
2023/03/07 09:15:13;;;;;;;20.73;11.60;;;;;;;;;;5033054;28;20061;-76
2023/03/07 09:17:39;;;;;;;23.30;11.38;;;;;;;;;;5034678;28;20037;-77
2023/03/07 09:20:06;;;;;;;19.50;10.52;;;;;;;;;;5031607;28;20509;-76
2023/03/07 09:22:32;;;;;;;22.50;10.85;;;;;;;;;;5028403;28;20033;-76
2023/03/07 09:24:58;;;;;;;22.70;10.50;;;;;;;;;;5030594;28;20033;-77
2023/03/07 09:27:24;;;;;;;23.20;11.63;;;;;;;;;;5033543;28;20029;-77
2023/03/07 09:29:50;;;;;;;20.65;11.60;;;;;;;;;;5038247;28;20068;-76
2023/03/07 09:32:16;;;;;;;26.20;11.57;;;;;;;;;;5034723;28;20057;-76
2023/03/07 09:34:42;;;;;;;22.60;10.68;;;;;;;;;;5032891;28;20040;-76
2023/03/07 09:37:08;;;;;;;22.15;11.38;;;;;;;;;;5027693;28;20095;-77
2023/03/07 09:39:34;;;;;;;18.63;11.18;;;;;;;;;;5039083;28;20458;-77
2023/03/07 09:42:06;;;;;;;20.83;10.45;;;;;;;;;;5036270;28;20033;-76
2023/03/07 09:44:51;;;;;;;20.05;10.32;;;;;;;;;;5032238;28;20030;-76
2023/03/07 09:47:35;;;;;;;20.70;10.57;;;;;;;;;;5032052;28;20157;-76
2023/03/07 09:50:03;;;;;;;22.08;10.18;;;;;;;;;;5029468;28;20025;-76
2023/03/07 09:52:32;;;;;;;18.35;10.13;;;;;;;;;;5017611;28;20117;-77
2023/03/07 09:54:58;;;;;;;21.13;10.52;;;;;;;;;;5028393;28;20131;-76
2023/03/07 09:57:30;;;;;;;23.90;10.63;;;;;;;;;;5033624;28;20054;-76
2023/03/07 09:59:58;;;;;;;22.20;10.10;;;;;;;;;;5035518;28;20029;-76
2023/03/07 10:02:40;;;;;;;17.15;9.88;;;;;;;;;;5032898;28;20029;-77
2023/03/07 10:05:25;;;;;;;23.48;10.50;;;;;;;;;;5024519;28;20156;-76
2023/03/07 10:07:51;;;;;;;24.48;10.23;;;;;;;;;;5025422;28;20083;-76
2023/03/07 10:10:20;;;;;;;18.08;9.88;;;;;;;;;;5030940;28;20033;-77
2023/03/07 10:12:49;;;;;;;22.10;10.93;;;;;;;;;;5025857;28;20053;-76
2023/03/07 10:15:18;;;;;;;21.15;10.00;;;;;;;;;;5022060;28;20033;-76
2023/03/07 10:18:04;;;;;;;21.05;10.25;;;;;;;;;;5028463;28;20025;-76
2023/03/07 10:20:51;;;;;;;26.90;11.40;;;;;;;;;;5027760;28;20037;-76
2023/03/07 10:23:17;;;;;;;21.60;9.38;;;;;;;;;;5025687;28;20479;-76
2023/03/07 10:25:52;;;;;;;22.38;9.80;;;;;;;;;;5027923;28;20112;-76
2023/03/07 10:28:32;;;;;;;19.10;9.52;;;;;;;;;;5037450;28;20099;-76
2023/03/07 10:31:00;;;;;;;22.40;10.93;;;;;;;;;;5028084;28;20386;-77
2023/03/07 10:33:27;;;;;;;21.85;10.45;;;;;;;;;;5028928;28;20064;-76
2023/03/07 10:35:57;;;;;;;23.10;11.70;;;;;;;;;;5029991;28;20107;-76
2023/03/07 10:38:32;;;;;;;22.02;10.95;;;;;;;;;;5029828;28;20033;-76
2023/03/07 10:41:06;;;;;;;22.65;11.13;;;;;;;;;;5029582;28;20044;-77
2023/03/07 10:43:33;;;;;;;26.15;11.40;;;;;;;;;;5030513;28;20463;-76
2023/03/07 10:46:02;;;;;;;22.48;9.70;;;;;;;;;;5026787;28;20042;-76
2023/03/07 10:48:29;;;;;;;21.05;10.27;;;;;;;;;;5024270;28;20018;-76
2023/03/07 10:51:14;;;;;;;19.30;9.20;;;;;;;;;;5021996;28;20041;-76
2023/03/07 10:53:40;;;;;;;22.15;8.63;;;;;;;;;;5029251;28;20040;-76
2023/03/07 10:56:14;;;;;;;16.27;8.20;;;;;;;;;;5021392;28;20421;-76
2023/03/07 10:58:42;;;;;;;16.40;8.05;;;;;;;;;;5014314;28;20052;-76
2023/03/07 11:01:15;;;;;;;19.45;8.98;;;;;;;;;;5024666;28;20076;-76
2023/03/07 11:03:43;;;;;;;19.23;8.88;;;;;;;;;;5021275;28;20699;-76
2023/03/07 11:06:30;;;;;;;16.27;7.75;;;;;;;;;;5035236;28;20530;-76
2023/03/07 11:08:56;;;;;;;21.58;8.48;;;;;;;;;;5027823;28;20030;-76
2023/03/07 11:11:29;;;;;;;26.25;9.38;;;;;;;;;;5033167;28;20095;-76
2023/03/07 11:14:08;;;;;;;17.02;8.60;;;;;;;;;;5027017;28;20034;-77
2023/03/07 11:17:00;;;;;;;17.27;8.13;;;;;;;;;;5027934;28;20048;-76
2023/03/07 11:19:29;;;;;;;19.98;8.95;;;;;;;;;;5029462;28;20053;-76
2023/03/07 11:21:56;;;;;;;14.98;8.20;;;;;;;;;;5021247;28;20038;-77
2023/03/07 11:24:27;;;;;;;16.50;9.05;;;;;;;;;;5026826;28;20025;-77
2023/03/07 11:26:53;;;;;;;20.10;9.75;;;;;;;;;;5025322;28;20037;-76
2023/03/07 11:29:19;;;;;;;20.33;8.52;;;;;;;;;;5027100;28;20034;-76
2023/03/07 11:31:59;;;;;;;17.50;8.55;;;;;;;;;;5024661;28;20092;-77
2023/03/07 11:34:27;;;;;;;16.38;7.78;;;;;;;;;;5023011;28;20534;-76
2023/03/07 11:37:03;;;;;;;16.02;8.10;;;;;;;;;;5024152;28;20048;-77
2023/03/07 11:39:32;;;;;;;16.58;7.68;;;;;;;;;;5025376;28;20040;-76
2023/03/07 11:42:06;;;;;;;18.65;8.40;;;;;;;;;;5027276;28;20037;-76
2023/03/07 11:44:44;;;;;;;13.90;7.55;;;;;;;;;;5025159;28;20029;-76
2023/03/07 11:47:29;;;;;;;14.57;7.35;;;;;;;;;;5020727;28;20037;-76
2023/03/07 11:50:04;;;;;;;16.95;8.13;;;;;;;;;;5026081;28;20029;-77
2023/03/07 11:52:51;;;;;;;19.63;10.23;;;;;;;;;;5022764;28;20046;-76
2023/03/07 11:55:30;;;;;;;19.23;9.07;;;;;;;;;;5026915;28;20029;-77
2023/03/07 11:57:57;;;;;;;19.40;8.77;;;;;;;;;;5026891;28;20047;-76
2023/03/07 12:00:42;;;;;;;23.00;10.25;;;;;;;;;;5022042;28;20041;-76
2023/03/07 12:03:27;;;;;;;18.92;10.00;;;;;;;;;;5032796;28;20063;-76
2023/03/07 12:05:56;;;;;;;21.92;10.52;;;;;;;;;;5023749;28;20557;-76
2023/03/07 12:08:48;;;;;;;21.83;10.88;;;;;;;;;;5031113;28;20486;-76
2023/03/07 12:11:28;;;;;;;19.65;10.43;;;;;;;;;;5015399;28;20050;-76
2023/03/07 12:14:03;;;;;;;23.17;11.45;;;;;;;;;;5025546;28;20039;-76
2023/03/07 12:16:48;;;;;;;22.70;11.80;;;;;;;;;;5029640;28;20491;-77
2023/03/07 12:19:20;;;;;;;21.13;10.80;;;;;;;;;;5029474;28;20029;-76
2023/03/07 12:21:49;;;;;;;21.80;10.82;;;;;;;;;;5029749;28;20037;-76
2023/03/07 12:24:22;;;;;;;22.63;11.50;;;;;;;;;;5016292;28;20104;-76
2023/03/07 12:26:48;;;;;;;22.05;11.15;;;;;;;;;;5019624;28;20495;-76
2023/03/07 12:29:32;;;;;;;27.20;11.77;;;;;;;;;;5023479;28;20409;-76
2023/03/07 12:32:02;;;;;;;20.88;12.05;;;;;;;;;;5028485;28;20041;-77
2023/03/07 12:34:33;;;;;;;25.45;11.55;;;;;;;;;;5015891;28;20037;-77
2023/03/07 12:37:06;;;;;;;27.23;11.48;;;;;;;;;;5029449;28;20048;-76
2023/03/07 12:39:32;;;;;;;;;;;;;;;;;;5029503;28;20034;-76
2023/03/07 12:42:16;;;;;;;19.85;10.15;;;;;;;;;;5029082;28;19921;-77
2023/03/07 12:44:48;;;;;;;24.73;10.90;;;;;;;;;;5026439;28;20052;-77
2023/03/07 12:47:22;;;;;;;21.73;11.45;;;;;;;;;;5021539;28;20032;-76
2023/03/07 12:49:53;;;;;;;22.27;11.23;;;;;;;;;;5023239;28;20527;-76
2023/03/07 12:52:42;;;;;;;21.48;11.27;;;;;;;;;;5030272;28;20041;-76
2023/03/07 12:55:14;;;;;;;22.58;10.95;;;;;;;;;;4999598;28;20541;-76
2023/03/07 12:57:42;;;;;;;;;;;;;;;;;;5026134;28;20108;-77
2023/03/07 13:00:10;;;;;;;23.67;10.88;;;;;;;;;;5028457;28;19952;-76
2023/03/07 13:02:43;;;;;;;20.92;11.07;;;;;;;;;;5025132;28;20041;-76
2023/03/07 13:05:16;;;;;;;21.20;11.52;;;;;;;;;;5028580;28;20061;-76
2023/03/07 13:07:43;;;;;;;21.17;10.75;;;;;;;;;;5021863;28;20117;-76
2023/03/07 13:10:12;;;;;;;19.73;9.95;;;;;;;;;;5022471;28;20460;-76
2023/03/07 13:12:38;;;;;;;23.50;10.52;;;;;;;;;;5030981;28;20044;-77
2023/03/07 13:15:19;;;;;;;19.30;10.55;;;;;;;;;;5023931;28;20037;-76
2023/03/07 13:17:45;;;;;;;22.13;10.07;;;;;;;;;;5026604;28;20136;-76
2023/03/07 13:20:17;;;;;;;19.60;12.15;;;;;;;;;;5035966;28;20116;-76
2023/03/07 13:22:43;;;;;;;17.38;10.07;;;;;;;;;;5033561;28;20037;-76
2023/03/07 13:25:24;;;;;;;22.30;11.23;;;;;;;;;;5029842;28;20029;-76
2023/03/07 13:27:50;;;;;;;22.23;11.63;;;;;;;;;;5027933;28;20030;-77
2023/03/07 13:30:27;;;;;;;21.23;10.68;;;;;;;;;;5033831;28;20079;-77
2023/03/07 13:32:53;;;;;;;20.38;10.98;;;;;;;;;;5029256;28;20375;-76
2023/03/07 13:35:28;;;;;;;22.52;11.15;;;;;;;;;;5038037;28;20029;-76
2023/03/07 13:37:58;;;;;;;20.50;11.50;;;;;;;;;;5025330;28;20030;-76
2023/03/07 13:40:24;;;;;;;24.70;10.57;;;;;;;;;;5026170;28;20034;-76
2023/03/07 13:42:51;;;;;;;21.45;11.07;;;;;;;;;;5024488;28;20077;-76
2023/03/07 13:45:35;;;;;;;20.15;10.98;;;;;;;;;;5039385;28;20379;-76
2023/03/07 13:48:01;;;;;;;19.00;10.32;;;;;;;;;;5026709;28;20084;-76
2023/03/07 13:50:37;;;;;;;20.02;10.85;;;;;;;;;;5028016;28;20033;-76
2023/03/07 13:53:20;;;;;;;20.20;11.02;;;;;;;;;;5028154;28;20541;-77
2023/03/07 13:55:49;;;;;;;22.05;11.32;;;;;;;;;;5032943;28;20862;-76
2023/03/07 13:58:34;;;;;;;22.13;10.77;;;;;;;;;;5018035;28;20032;-76
2023/03/07 14:01:00;;;;;;;19.20;10.50;;;;;;;;;;5027002;28;20050;-76
2023/03/07 14:03:37;;;;;;;24.05;10.38;;;;;;;;;;5027498;28;20783;-77
2023/03/07 14:06:08;;;;;;;22.27;11.40;;;;;;;;;;5027843;28;20049;-77
2023/03/07 14:08:35;;;;;;;20.58;9.90;;;;;;;;;;5024944;28;20025;-76
2023/03/07 14:11:01;;;;;;;17.25;8.85;;;;;;;;;;5029747;28;20112;-76
2023/03/07 14:13:49;;;;;;;19.48;9.98;;;;;;;;;;5026704;28;20029;-76
2023/03/07 14:16:28;;;;;;;21.15;10.23;;;;;;;;;;5033590;28;20037;-76
2023/03/07 14:18:59;;;;;;;19.13;10.10;;;;;;;;;;5030434;28;20812;-76
2023/03/07 14:21:37;;;;;;;24.35;11.30;;;;;;;;;;5031403;28;20037;-76
2023/03/07 14:24:22;;;;;;;20.90;10.68;;;;;;;;;;5021894;28;20029;-76
2023/03/07 14:26:50;;;;;;;19.10;10.20;;;;;;;;;;5022963;28;20047;-76
2023/03/07 14:29:18;;;;;;;20.30;9.80;;;;;;;;;;5027018;28;20501;-76